Time;durP1;ratioP1;P1;durP2;ratioP2;P2;SDS_P1;SDS_P2;PMS_P1;PMS_P2;Temp;Humidity;BMP_temperature;BMP_pressure;BME280_temperature;BME280_humidity;BME280_pressure;Samples;Min_cycle;Max_cycle;Signal;HPM_P1;HPM_P2
2023/03/17 00:02:09;;;;;;;9.00;8.10;;;;;;;;;;5140227;27;20541;-77
2023/03/17 00:04:38;;;;;;;8.50;7.43;;;;;;;;;;5141442;27;20462;-75
2023/03/17 00:07:08;;;;;;;9.40;8.50;;;;;;;;;;5142304;27;20596;-76
2023/03/17 00:09:36;;;;;;;8.60;7.70;;;;;;;;;;5141469;27;20474;-75
2023/03/17 00:12:15;;;;;;;8.43;7.60;;;;;;;;;;5140962;27;20441;-76
2023/03/17 00:14:45;;;;;;;8.60;7.80;;;;;;;;;;5140945;27;20529;-77
2023/03/17 00:17:13;;;;;;;8.80;7.90;;;;;;;;;;5141198;27;20594;-77
2023/03/17 00:19:43;;;;;;;7.97;7.17;;;;;;;;;;5141256;27;20513;-76
2023/03/17 00:22:17;;;;;;;10.30;8.50;;;;;;;;;;5141976;27;20457;-76
2023/03/17 00:24:51;;;;;;;8.10;7.33;;;;;;;;;;5141637;27;20451;-77
2023/03/17 00:27:22;;;;;;;8.50;7.70;;;;;;;;;;5140793;27;20478;-77
2023/03/17 00:29:53;;;;;;;8.23;7.43;;;;;;;;;;5137948;27;20473;-76
2023/03/17 00:32:22;;;;;;;11.37;7.40;;;;;;;;;;5134814;27;20490;-76
2023/03/17 00:34:53;;;;;;;9.27;7.50;;;;;;;;;;5134054;27;20557;-76
2023/03/17 00:37:23;;;;;;;7.97;7.20;;;;;;;;;;5134895;27;20442;-76
2023/03/17 00:40:01;;;;;;;9.73;7.80;;;;;;;;;;5139166;27;20532;-76
2023/03/17 00:42:32;;;;;;;8.60;7.70;;;;;;;;;;5139441;27;20798;-76
2023/03/17 00:45:02;;;;;;;8.30;7.57;;;;;;;;;;5137268;27;20509;-77
2023/03/17 00:47:45;;;;;;;8.27;6.83;;;;;;;;;;5135637;27;20489;-76
2023/03/17 00:50:17;;;;;;;9.33;7.90;;;;;;;;;;5134624;27;21010;-76
2023/03/17 00:52:54;;;;;;;8.00;7.20;;;;;;;;;;5134051;27;20500;-76
2023/03/17 00:55:27;;;;;;;9.70;7.40;;;;;;;;;;5133581;27;20565;-77
2023/03/17 00:58:17;;;;;;;8.97;8.17;;;;;;;;;;5135337;27;20525;-76
2023/03/17 01:00:53;;;;;;;9.97;8.97;;;;;;;;;;5135931;27;20449;-76
2023/03/17 01:03:33;;;;;;;8.07;7.27;;;;;;;;;;5141433;27;20456;-77
2023/03/17 01:06:13;;;;;;;11.00;7.37;;;;;;;;;;5133612;27;20473;-76
2023/03/17 01:08:45;;;;;;;7.37;6.67;;;;;;;;;;5137858;28;20467;-77
2023/03/17 01:11:30;;;;;;;8.10;7.33;;;;;;;;;;5139136;28;20426;-76
2023/03/17 01:14:06;;;;;;;8.33;7.53;;;;;;;;;;5136008;27;20457;-76
2023/03/17 01:16:36;;;;;;;12.30;7.60;;;;;;;;;;5135441;27;20510;-75
2023/03/17 01:19:04;;;;;;;8.93;8.10;;;;;;;;;;5139099;27;20445;-76
2023/03/17 01:21:32;;;;;;;7.37;6.77;;;;;;;;;;5157426;27;20430;-76
2023/03/17 01:24:11;;;;;;;8.50;7.60;;;;;;;;;;5156719;27;20468;-76
2023/03/17 01:26:48;;;;;;;9.47;8.50;;;;;;;;;;5156935;27;20439;-76
2023/03/17 01:29:17;;;;;;;8.83;8.07;;;;;;;;;;5157413;27;20476;-76
2023/03/17 01:31:46;;;;;;;7.77;7.17;;;;;;;;;;5157395;27;20459;-76
2023/03/17 01:34:32;;;;;;;8.30;7.50;;;;;;;;;;5156701;27;20468;-77
2023/03/17 01:37:05;;;;;;;9.63;7.40;;;;;;;;;;5155281;27;20443;-75
2023/03/17 01:39:39;;;;;;;8.70;7.80;;;;;;;;;;5137458;27;20445;-77
2023/03/17 01:42:10;;;;;;;11.70;8.47;;;;;;;;;;5136513;27;20865;-77
2023/03/17 01:44:53;;;;;;;9.20;7.53;;;;;;;;;;5137992;27;20470;-75
2023/03/17 01:50:07;;;;;;;8.10;7.30;;;;;;;;;;5137192;27;20473;-75
2023/03/17 01:52:42;;;;;;;8.70;7.90;;;;;;;;;;5137565;27;20525;-75
2023/03/17 01:55:17;;;;;;;8.00;7.30;;;;;;;;;;5136810;27;20457;-75
2023/03/17 01:57:55;;;;;;;8.10;7.40;;;;;;;;;;5137092;27;20459;-74
2023/03/17 02:00:32;;;;;;;8.57;6.70;;;;;;;;;;5136853;27;20917;-75
2023/03/17 02:03:03;;;;;;;8.10;7.40;;;;;;;;;;5135915;27;20445;-75
2023/03/17 02:05:40;;;;;;;8.10;7.30;;;;;;;;;;5137704;27;20478;-76
2023/03/17 02:08:23;;;;;;;7.70;6.90;;;;;;;;;;5138286;27;20434;-77
2023/03/17 02:11:13;;;;;;;7.43;6.83;;;;;;;;;;5137945;27;20538;-77
2023/03/17 02:13:52;;;;;;;7.83;7.13;;;;;;;;;;5137732;27;20953;-75
2023/03/17 02:19:06;;;;;;;7.77;7.07;;;;;;;;;;5135317;27;20446;-76
2023/03/17 02:21:46;;;;;;;9.03;7.10;;;;;;;;;;5138333;27;20499;-76
2023/03/17 02:24:27;;;;;;;9.20;7.27;;;;;;;;;;5137944;27;20465;-77
2023/03/17 02:27:04;;;;;;;6.90;6.37;;;;;;;;;;5137129;27;20470;-74
2023/03/17 02:29:33;;;;;;;7.10;6.50;;;;;;;;;;5138212;27;20481;-75
2023/03/17 02:32:06;;;;;;;9.13;7.17;;;;;;;;;;5139345;27;20539;-75
2023/03/17 02:34:36;;;;;;;8.20;6.83;;;;;;;;;;5138871;27;20452;-75
2023/03/17 02:37:13;;;;;;;7.17;6.57;;;;;;;;;;5136872;27;20422;-75
2023/03/17 02:39:55;;;;;;;7.83;6.63;;;;;;;;;;5136188;27;20429;-76
2023/03/17 02:42:30;;;;;;;8.83;6.40;;;;;;;;;;5136197;27;20499;-76
2023/03/17 02:45:02;;;;;;;13.03;7.93;;;;;;;;;;5135665;27;20477;-75
2023/03/17 02:47:33;;;;;;;8.83;6.37;;;;;;;;;;5135093;27;20431;-75
2023/03/17 02:50:05;;;;;;;7.37;6.30;;;;;;;;;;5135289;27;20481;-76
2023/03/17 02:52:46;;;;;;;7.60;7.00;;;;;;;;;;5134721;27;20472;-75
2023/03/17 02:55:19;;;;;;;8.20;7.50;;;;;;;;;;5134509;27;20478;-75
2023/03/17 02:57:47;;;;;;;7.50;6.70;;;;;;;;;;5134585;27;20557;-75
2023/03/17 03:00:20;;;;;;;8.27;7.53;;;;;;;;;;5135415;27;20483;-75
2023/03/17 03:02:53;;;;;;;6.93;6.23;;;;;;;;;;5136106;27;20454;-75
2023/03/17 03:05:32;;;;;;;7.10;6.37;;;;;;;;;;5133981;27;20446;-76
2023/03/17 03:08:01;;;;;;;7.00;6.30;;;;;;;;;;5134122;27;20445;-75
2023/03/17 03:10:31;;;;;;;7.93;7.13;;;;;;;;;;5133637;27;20470;-75
2023/03/17 03:12:58;;;;;;;6.80;6.20;;;;;;;;;;5133681;27;20442;-75
2023/03/17 03:15:27;;;;;;;7.60;6.90;;;;;;;;;;5133232;27;20596;-75
2023/03/17 03:17:57;;;;;;;7.60;7.00;;;;;;;;;;5118472;27;20453;-77
2023/03/17 03:20:28;;;;;;;7.53;6.83;;;;;;;;;;5112728;27;20950;-75
2023/03/17 03:22:57;;;;;;;8.27;7.47;;;;;;;;;;5112675;28;20439;-75
2023/03/17 03:25:29;;;;;;;6.80;6.20;;;;;;;;;;5113557;27;20507;-77
2023/03/17 03:28:05;;;;;;;7.97;6.40;;;;;;;;;;5113008;27;20447;-76
2023/03/17 03:30:33;;;;;;;7.67;6.93;;;;;;;;;;5112947;27;20474;-75
2023/03/17 03:33:01;;;;;;;8.73;7.07;;;;;;;;;;5113244;28;20454;-75
2023/03/17 03:35:33;;;;;;;8.20;6.07;;;;;;;;;;5112836;28;20470;-78
2023/03/17 03:38:06;;;;;;;7.83;7.23;;;;;;;;;;5113157;28;20480;-77
2023/03/17 03:43:51;;;;;;;7.20;6.50;;;;;;;;;;5086670;28;20501;-75
2023/03/17 03:46:22;;;;;;;8.50;6.77;;;;;;;;;;5089736;28;21082;-76
2023/03/17 03:48:50;;;;;;;7.07;6.37;;;;;;;;;;5106158;28;20945;-75
2023/03/17 03:51:25;;;;;;;7.57;6.77;;;;;;;;;;5112407;27;20475;-76
2023/03/17 03:53:53;;;;;;;7.67;6.97;;;;;;;;;;5112206;28;20776;-76
2023/03/17 03:56:22;;;;;;;7.63;6.93;;;;;;;;;;5112409;27;20474;-75
2023/03/17 03:58:56;;;;;;;7.83;7.03;;;;;;;;;;5112873;28;20419;-76
2023/03/17 04:01:30;;;;;;;8.23;7.40;;;;;;;;;;5112669;28;20462;-78
2023/03/17 04:04:07;;;;;;;7.70;7.07;;;;;;;;;;5111831;28;20474;-75
2023/03/17 04:06:38;;;;;;;7.90;7.10;;;;;;;;;;5112239;27;20478;-75
2023/03/17 04:09:09;;;;;;;7.97;7.17;;;;;;;;;;5112304;28;20458;-75
2023/03/17 04:11:39;;;;;;;7.67;6.97;;;;;;;;;;5112742;28;20475;-75
2023/03/17 04:14:08;;;;;;;7.47;6.67;;;;;;;;;;5112120;28;20519;-76
2023/03/17 04:16:39;;;;;;;10.73;7.00;;;;;;;;;;5112880;28;20465;-76
2023/03/17 04:19:11;;;;;;;7.60;6.93;;;;;;;;;;5125380;27;20509;-75
2023/03/17 04:21:51;;;;;;;7.97;7.20;;;;;;;;;;5134266;27;20457;-75
2023/03/17 04:24:24;;;;;;;7.53;6.93;;;;;;;;;;5132793;27;20465;-75
2023/03/17 04:26:57;;;;;;;10.60;7.63;;;;;;;;;;5133224;27;20449;-77
2023/03/17 04:29:32;;;;;;;8.20;7.40;;;;;;;;;;5133213;27;20450;-75
2023/03/17 04:32:05;;;;;;;8.60;7.80;;;;;;;;;;5133588;27;20677;-75
2023/03/17 04:34:35;;;;;;;7.40;6.70;;;;;;;;;;5134283;27;20477;-74
2023/03/17 04:37:09;;;;;;;9.20;8.30;;;;;;;;;;5134381;27;20442;-76
2023/03/17 04:39:42;;;;;;;7.90;7.10;;;;;;;;;;5134639;27;20419;-77
2023/03/17 04:42:12;;;;;;;7.80;7.10;;;;;;;;;;5134693;27;20458;-76
2023/03/17 04:44:45;;;;;;;8.43;7.53;;;;;;;;;;5134283;27;20453;-76
2023/03/17 04:47:14;;;;;;;7.87;7.17;;;;;;;;;;5134516;27;20477;-76
2023/03/17 04:49:42;;;;;;;9.20;8.30;;;;;;;;;;5135630;27;20450;-74
2023/03/17 04:52:12;;;;;;;8.87;7.90;;;;;;;;;;5139051;27;20542;-76
2023/03/17 04:54:46;;;;;;;8.60;7.70;;;;;;;;;;5139238;27;20483;-75
2023/03/17 04:57:23;;;;;;;9.50;8.17;;;;;;;;;;5138825;27;20557;-77
2023/03/17 05:00:02;;;;;;;8.90;7.17;;;;;;;;;;5139761;27;20485;-76
2023/03/17 05:02:32;;;;;;;8.37;7.67;;;;;;;;;;5139507;27;20533;-74
2023/03/17 05:05:07;;;;;;;7.70;7.00;;;;;;;;;;5138918;27;21067;-77
2023/03/17 05:07:46;;;;;;;8.40;7.60;;;;;;;;;;5139147;27;20457;-75
2023/03/17 05:10:21;;;;;;;8.17;7.47;;;;;;;;;;5140109;27;20477;-77
2023/03/17 05:12:53;;;;;;;8.57;7.87;;;;;;;;;;5138684;27;20449;-75
2023/03/17 05:15:25;;;;;;;11.40;10.30;;;;;;;;;;5138562;27;20474;-77
2023/03/17 05:17:58;;;;;;;12.00;10.80;;;;;;;;;;5137383;27;20435;-77
2023/03/17 05:20:33;;;;;;;8.30;7.50;;;;;;;;;;5138265;27;20462;-75
2023/03/17 05:23:03;;;;;;;8.10;7.30;;;;;;;;;;5138096;27;20454;-76
2023/03/17 05:25:41;;;;;;;8.57;7.77;;;;;;;;;;5139560;27;20465;-75
2023/03/17 05:28:10;;;;;;;12.50;8.27;;;;;;;;;;5138578;27;20449;-77
2023/03/17 05:31:01;;;;;;;8.90;7.90;;;;;;;;;;5137967;27;20497;-76
2023/03/17 05:33:36;;;;;;;19.33;15.40;;;;;;;;;;5138129;27;20476;-75
2023/03/17 05:36:07;;;;;;;21.10;17.77;;;;;;;;;;5138008;27;20516;-75
2023/03/17 05:38:40;;;;;;;8.87;7.83;;;;;;;;;;5136805;27;20449;-77
2023/03/17 05:41:21;;;;;;;10.60;8.40;;;;;;;;;;5136826;27;20472;-74
2023/03/17 05:43:53;;;;;;;8.17;7.40;;;;;;;;;;5136435;27;20497;-76
2023/03/17 05:46:27;;;;;;;8.20;7.50;;;;;;;;;;5136736;27;20510;-75
2023/03/17 05:49:01;;;;;;;9.23;8.37;;;;;;;;;;5136755;27;20472;-75
2023/03/17 05:51:40;;;;;;;9.30;8.40;;;;;;;;;;5136895;27;20512;-75
2023/03/17 05:54:21;;;;;;;;;;;;;;;;;;;;;
2023/03/17 05:56:54;;;;;;;9.17;8.27;;;;;;;;;;5136080;27;20430;-75
2023/03/17 05:59:25;;;;;;;9.00;8.10;;;;;;;;;;5137162;27;20446;-75
2023/03/17 06:01:55;;;;;;;10.90;8.47;;;;;;;;;;5140679;27;20944;-76
2023/03/17 06:04:26;;;;;;;10.73;9.23;;;;;;;;;;5142740;27;20462;-75
2023/03/17 06:06:53;;;;;;;13.67;10.70;;;;;;;;;;5143101;27;20454;-76
2023/03/17 06:09:24;;;;;;;12.50;9.37;;;;;;;;;;5161647;27;20478;-77
2023/03/17 06:11:53;;;;;;;13.30;9.83;;;;;;;;;;5164581;27;20528;-76
2023/03/17 06:14:20;;;;;;;10.70;9.60;;;;;;;;;;5165491;27;20475;-76
2023/03/17 06:16:48;;;;;;;11.33;8.70;;;;;;;;;;5161212;27;20438;-76
2023/03/17 06:19:22;;;;;;;10.57;9.63;;;;;;;;;;5146972;27;20492;-76
2023/03/17 06:21:54;;;;;;;12.20;10.37;;;;;;;;;;5145390;27;20445;-75
2023/03/17 06:24:25;;;;;;;10.00;9.00;;;;;;;;;;5141232;27;20466;-75
2023/03/17 06:27:00;;;;;;;14.10;10.43;;;;;;;;;;5136814;27;20836;-76
2023/03/17 06:29:31;;;;;;;10.10;9.20;;;;;;;;;;5135704;27;20993;-76
2023/03/17 06:31:59;;;;;;;10.30;9.30;;;;;;;;;;5134641;27;20470;-76
2023/03/17 06:34:27;;;;;;;9.83;8.83;;;;;;;;;;5134797;27;20826;-76
2023/03/17 06:36:58;;;;;;;11.13;7.73;;;;;;;;;;5142081;27;20455;-75
2023/03/17 06:39:26;;;;;;;90.67;58.27;;;;;;;;;;5143085;27;20442;-76
2023/03/17 06:41:56;;;;;;;115.47;69.97;;;;;;;;;;5143757;27;20443;-79
2023/03/17 06:44:25;;;;;;;22.93;17.17;;;;;;;;;;5143450;27;20529;-76
2023/03/17 06:46:54;;;;;;;10.27;8.70;;;;;;;;;;5144510;27;20449;-77
2023/03/17 06:49:22;;;;;;;10.53;9.37;;;;;;;;;;5143683;27;20438;-78
2023/03/17 06:51:50;;;;;;;11.00;9.30;;;;;;;;;;5143980;27;20511;-78
2023/03/17 06:54:19;;;;;;;10.67;9.60;;;;;;;;;;5144463;27;20488;-76
2023/03/17 06:56:54;;;;;;;10.87;9.73;;;;;;;;;;5136251;27;20865;-76
2023/03/17 06:59:29;;;;;;;11.37;9.30;;;;;;;;;;5136068;27;20450;-76
2023/03/17 07:02:02;;;;;;;10.40;9.40;;;;;;;;;;5137253;27;20448;-76
2023/03/17 07:04:36;;;;;;;12.43;9.80;;;;;;;;;;5138499;27;20453;-75
2023/03/17 07:07:08;;;;;;;12.07;10.17;;;;;;;;;;5139118;27;20444;-76
2023/03/17 07:09:38;;;;;;;10.67;9.60;;;;;;;;;;5139419;27;20477;-77
2023/03/17 07:12:07;;;;;;;9.73;8.67;;;;;;;;;;5139518;27;21052;-78
2023/03/17 07:14:42;;;;;;;10.57;8.33;;;;;;;;;;5137118;27;20466;-77
2023/03/17 07:17:24;;;;;;;9.80;8.03;;;;;;;;;;5130000;27;20451;-76
2023/03/17 07:19:52;;;;;;;9.47;8.50;;;;;;;;;;5117232;27;20455;-76
2023/03/17 07:22:23;;;;;;;17.90;8.50;;;;;;;;;;5118582;28;20514;-75
2023/03/17 07:24:53;;;;;;;9.43;8.53;;;;;;;;;;5117771;28;20466;-77
2023/03/17 07:27:25;;;;;;;13.17;10.80;;;;;;;;;;5117930;28;20426;-76
2023/03/17 07:29:53;;;;;;;10.00;8.70;;;;;;;;;;5117318;28;20466;-75
2023/03/17 07:32:26;;;;;;;10.60;9.70;;;;;;;;;;5116165;27;20547;-76
2023/03/17 07:34:54;;;;;;;10.60;8.97;;;;;;;;;;5117892;27;20481;-77
2023/03/17 07:37:23;;;;;;;10.00;9.00;;;;;;;;;;5122138;27;20446;-76
2023/03/17 07:39:51;;;;;;;11.07;8.87;;;;;;;;;;5121134;28;20954;-76
2023/03/17 07:42:21;;;;;;;11.77;9.70;;;;;;;;;;5121226;27;20449;-76
2023/03/17 07:44:49;;;;;;;10.33;8.70;;;;;;;;;;5122973;27;20474;-77
2023/03/17 07:47:26;;;;;;;11.70;10.00;;;;;;;;;;5120142;27;20527;-79
2023/03/17 07:49:54;;;;;;;13.53;9.40;;;;;;;;;;5120420;28;20473;-76
2023/03/17 07:52:25;;;;;;;13.13;9.00;;;;;;;;;;5121995;28;20547;-76
2023/03/17 07:55:09;;;;;;;14.03;12.10;;;;;;;;;;5121324;28;20510;-76
2023/03/17 07:57:42;;;;;;;8.97;7.90;;;;;;;;;;5121456;27;20439;-76
2023/03/17 08:00:12;;;;;;;7.93;7.23;;;;;;;;;;5124241;27;20447;-76
2023/03/17 08:02:39;;;;;;;8.07;7.27;;;;;;;;;;5121785;27;20525;-77
2023/03/17 08:05:08;;;;;;;12.10;7.47;;;;;;;;;;5121308;28;20477;-76
2023/03/17 08:07:37;;;;;;;8.40;7.60;;;;;;;;;;5123579;27;20447;-77
2023/03/17 08:10:06;;;;;;;7.90;7.10;;;;;;;;;;5125021;28;20477;-76
2023/03/17 08:12:37;;;;;;;8.47;7.67;;;;;;;;;;5125860;27;20470;-76
2023/03/17 08:15:08;;;;;;;8.97;7.90;;;;;;;;;;5122289;27;20466;-76
2023/03/17 08:17:46;;;;;;;10.53;7.63;;;;;;;;;;5129773;27;20532;-76
2023/03/17 08:20:14;;;;;;;10.73;7.27;;;;;;;;;;5136719;27;20510;-78
2023/03/17 08:22:45;;;;;;;10.33;7.53;;;;;;;;;;5134511;27;20446;-76
2023/03/17 08:25:16;;;;;;;8.53;7.63;;;;;;;;;;5133775;27;20477;-76
2023/03/17 08:27:44;;;;;;;12.30;8.30;;;;;;;;;;5133452;27;20456;-78
2023/03/17 08:30:15;;;;;;;8.17;7.40;;;;;;;;;;5136749;27;21081;-77
2023/03/17 08:32:53;;;;;;;10.17;9.17;;;;;;;;;;5142003;27;20474;-77
2023/03/17 08:35:22;;;;;;;8.73;7.47;;;;;;;;;;5141374;27;20465;-76
2023/03/17 08:37:51;;;;;;;7.83;7.03;;;;;;;;;;5141045;27;20964;-77
2023/03/17 08:40:19;;;;;;;8.07;6.90;;;;;;;;;;5140309;27;20892;-77
2023/03/17 08:42:48;;;;;;;11.37;7.57;;;;;;;;;;5140086;27;20438;-77
2023/03/17 08:45:19;;;;;;;8.27;7.47;;;;;;;;;;5143621;27;20466;-76
2023/03/17 08:47:47;;;;;;;10.67;7.13;;;;;;;;;;5142175;27;20531;-76
2023/03/17 08:50:22;;;;;;;10.20;7.07;;;;;;;;;;5140927;27;20525;-77
2023/03/17 08:52:53;;;;;;;9.70;7.70;;;;;;;;;;5140175;27;20475;-76
2023/03/17 08:55:21;;;;;;;9.50;7.10;;;;;;;;;;5139715;27;20490;-77
2023/03/17 08:57:57;;;;;;;8.67;7.73;;;;;;;;;;5139919;27;20461;-76
2023/03/17 09:00:27;;;;;;;8.90;6.97;;;;;;;;;;5138841;27;20851;-76
2023/03/17 09:03:00;;;;;;;9.07;7.33;;;;;;;;;;5137560;27;20450;-76
2023/03/17 09:05:29;;;;;;;9.20;7.17;;;;;;;;;;5137754;27;20509;-76
2023/03/17 09:08:01;;;;;;;10.90;7.20;;;;;;;;;;5136974;27;20457;-76
2023/03/17 09:10:30;;;;;;;7.53;6.70;;;;;;;;;;5137038;27;20475;-76
2023/03/17 09:13:02;;;;;;;9.13;7.43;;;;;;;;;;5136208;27;20469;-77
2023/03/17 09:15:30;;;;;;;7.20;6.47;;;;;;;;;;5135476;27;20542;-77
2023/03/17 09:18:07;;;;;;;8.10;6.70;;;;;;;;;;5119627;27;20814;-76
2023/03/17 09:20:42;;;;;;;6.93;6.00;;;;;;;;;;5114498;27;20470;-76
2023/03/17 09:23:22;;;;;;;8.83;7.63;;;;;;;;;;5115082;27;20999;-76
2023/03/17 09:25:57;;;;;;;11.30;7.67;;;;;;;;;;5117432;27;20467;-77
2023/03/17 09:28:31;;;;;;;10.80;7.30;;;;;;;;;;5114872;28;20875;-76
2023/03/17 09:31:01;;;;;;;7.93;7.23;;;;;;;;;;5113193;27;20459;-76
2023/03/17 09:33:35;;;;;;;8.00;7.30;;;;;;;;;;5111693;28;21033;-76
2023/03/17 09:36:05;;;;;;;7.67;6.87;;;;;;;;;;5112558;28;20446;-76
2023/03/17 09:38:36;;;;;;;7.70;6.63;;;;;;;;;;5116181;28;20465;-76
2023/03/17 09:41:10;;;;;;;11.97;6.20;;;;;;;;;;5116732;27;20454;-76
2023/03/17 09:43:49;;;;;;;7.77;6.70;;;;;;;;;;5116693;28;20531;-76
2023/03/17 09:46:28;;;;;;;6.50;5.83;;;;;;;;;;5116895;27;20450;-76
2023/03/17 09:49:11;;;;;;;10.90;6.70;;;;;;;;;;5116931;27;20454;-77
2023/03/17 09:51:47;;;;;;;8.20;6.53;;;;;;;;;;5117186;27;20533;-77
2023/03/17 09:54:31;;;;;;;5.83;5.17;;;;;;;;;;5117135;28;20471;-77
2023/03/17 09:57:11;;;;;;;7.10;6.07;;;;;;;;;;5116720;27;20537;-77
2023/03/17 09:59:46;;;;;;;9.53;6.00;;;;;;;;;;5116655;27;20451;-77
2023/03/17 10:02:23;;;;;;;6.80;5.73;;;;;;;;;;5116596;28;20659;-78
2023/03/17 10:05:05;;;;;;;8.23;5.90;;;;;;;;;;5116803;27;20470;-77
2023/03/17 10:07:43;;;;;;;9.30;5.80;;;;;;;;;;5117549;27;20447;-76
2023/03/17 10:10:24;;;;;;;6.47;5.83;;;;;;;;;;5117607;28;20415;-76
2023/03/17 10:13:02;;;;;;;10.90;6.53;;;;;;;;;;5117666;27;20475;-76
2023/03/17 10:15:57;;;;;;;;;;;;;;;;;;;;;
2023/03/17 10:21:23;;;;;;;7.23;5.20;;;;;;;;;;5118418;28;20449;-76
2023/03/17 10:24:00;;;;;;;6.80;6.10;;;;;;;;;;5118392;28;20981;-76
2023/03/17 10:26:49;;;;;;;6.43;5.83;;;;;;;;;;5119866;28;20431;-76
2023/03/17 10:29:31;;;;;;;11.70;5.03;;;;;;;;;;5113293;27;20446;-76
2023/03/17 10:32:13;;;;;;;6.03;5.10;;;;;;;;;;5119592;27;20485;-77
2023/03/17 10:34:45;;;;;;;7.70;5.20;;;;;;;;;;5122195;28;21000;-76
2023/03/17 10:37:18;;;;;;;6.20;4.90;;;;;;;;;;5121782;28;20493;-75
2023/03/17 10:39:50;;;;;;;4.97;4.47;;;;;;;;;;5123587;28;20472;-77
2023/03/17 10:42:25;;;;;;;9.17;4.90;;;;;;;;;;5124510;28;21009;-76
2023/03/17 10:44:56;;;;;;;7.93;4.80;;;;;;;;;;5123673;27;20563;-76
2023/03/17 10:47:40;;;;;;;5.27;4.77;;;;;;;;;;5124359;28;20450;-76
2023/03/17 10:50:19;;;;;;;7.50;4.17;;;;;;;;;;5123074;28;20503;-77
2023/03/17 10:52:51;;;;;;;4.97;4.47;;;;;;;;;;5122201;28;20467;-75
2023/03/17 10:55:20;;;;;;;6.37;4.40;;;;;;;;;;5122643;28;20477;-77
2023/03/17 10:57:57;;;;;;;4.73;3.70;;;;;;;;;;5123936;28;20447;-76
2023/03/17 11:00:40;;;;;;;5.07;3.97;;;;;;;;;;5123765;28;20458;-76
2023/03/17 11:03:13;;;;;;;4.47;3.80;;;;;;;;;;5134244;27;20437;-77
2023/03/17 11:05:52;;;;;;;6.17;3.73;;;;;;;;;;5143741;27;20423;-77
2023/03/17 11:08:30;;;;;;;5.23;4.00;;;;;;;;;;5143297;27;20446;-75
2023/03/17 11:11:07;;;;;;;4.53;4.10;;;;;;;;;;5145644;27;20460;-76
2023/03/17 11:13:41;;;;;;;6.33;4.07;;;;;;;;;;5144785;27;20481;-75
2023/03/17 11:16:23;;;;;;;4.10;3.80;;;;;;;;;;5142629;27;20468;-76
2023/03/17 11:19:04;;;;;;;5.50;4.47;;;;;;;;;;5137313;27;20581;-77
2023/03/17 11:21:45;;;;;;;5.30;3.43;;;;;;;;;;5138057;27;20458;-76
2023/03/17 11:24:15;;;;;;;4.50;3.73;;;;;;;;;;5139773;27;20554;-77
2023/03/17 11:27:02;;;;;;;4.27;3.87;;;;;;;;;;5137890;27;20790;-77
2023/03/17 11:32:37;;;;;;;6.53;3.70;;;;;;;;;;5134159;27;20484;-77
2023/03/17 11:35:33;;;;;;;3.40;3.10;;;;;;;;;;5135857;27;20939;-75
2023/03/17 11:38:23;;;;;;;5.03;3.40;;;;;;;;;;5123052;27;20463;-76
2023/03/17 11:41:22;;;;;;;5.13;3.90;;;;;;;;;;5134817;27;20944;-77
2023/03/17 11:44:02;;;;;;;3.97;2.90;;;;;;;;;;5069671;28;20551;-76
2023/03/17 11:46:40;;;;;;;4.17;3.63;;;;;;;;;;5070179;28;20490;-78
2023/03/17 11:49:19;;;;;;;4.27;3.60;;;;;;;;;;5070540;28;20504;-77
2023/03/17 11:51:53;;;;;;;5.70;3.07;;;;;;;;;;5070472;28;20838;-77
2023/03/17 11:54:24;;;;;;;3.83;3.00;;;;;;;;;;5100072;27;20464;-76
2023/03/17 11:56:56;;;;;;;8.43;6.13;;;;;;;;;;5134214;27;20438;-76
2023/03/17 11:59:32;;;;;;;4.10;3.30;;;;;;;;;;5134203;27;20450;-75
2023/03/17 12:02:05;;;;;;;3.50;3.20;;;;;;;;;;5134145;27;20502;-76
2023/03/17 12:04:38;;;;;;;4.37;3.27;;;;;;;;;;5133646;27;20814;-76
2023/03/17 12:07:09;;;;;;;6.10;3.13;;;;;;;;;;5133126;27;20452;-75
2023/03/17 12:09:41;;;;;;;2.77;2.57;;;;;;;;;;5133164;27;20517;-76
2023/03/17 12:12:10;;;;;;;3.20;2.93;;;;;;;;;;5133129;27;20506;-76
2023/03/17 12:14:44;;;;;;;4.97;3.27;;;;;;;;;;5132166;27;20679;-76
2023/03/17 12:17:17;;;;;;;2.70;2.50;;;;;;;;;;5132401;27;20450;-78
2023/03/17 12:19:53;;;;;;;4.77;2.70;;;;;;;;;;5132800;27;20495;-75
2023/03/17 12:22:29;;;;;;;3.90;3.47;;;;;;;;;;5132830;27;20457;-77
2023/03/17 12:25:07;;;;;;;17.17;15.40;;;;;;;;;;5132285;27;20472;-78
2023/03/17 12:27:38;;;;;;;4.10;2.80;;;;;;;;;;5132233;27;20429;-76
2023/03/17 12:30:10;;;;;;;5.07;2.70;;;;;;;;;;5132171;27;20446;-76
2023/03/17 12:32:44;;;;;;;3.43;2.83;;;;;;;;;;5133283;27;20485;-75
2023/03/17 12:35:25;;;;;;;3.93;3.30;;;;;;;;;;5132975;27;20470;-75
2023/03/17 12:37:53;;;;;;;5.07;3.47;;;;;;;;;;5133539;27;20450;-75
2023/03/17 12:40:22;;;;;;;3.53;3.23;;;;;;;;;;5133633;27;20809;-75
2023/03/17 12:42:52;;;;;;;8.90;3.43;;;;;;;;;;5133043;27;20471;-77
2023/03/17 12:45:37;;;;;;;9.13;2.87;;;;;;;;;;5134113;27;20553;-76
2023/03/17 12:48:12;;;;;;;3.00;2.80;;;;;;;;;;5123385;27;20534;-75
2023/03/17 12:50:54;;;;;;;4.13;2.50;;;;;;;;;;5134140;27;20465;-77
2023/03/17 12:53:26;;;;;;;4.17;3.47;;;;;;;;;;5101394;27;20961;-75
2023/03/17 12:55:55;;;;;;;3.20;2.90;;;;;;;;;;5133498;27;20454;-75
2023/03/17 12:58:29;;;;;;;8.43;2.90;;;;;;;;;;5132787;27;20526;-76
2023/03/17 13:01:04;;;;;;;4.77;2.77;;;;;;;;;;5134197;27;20449;-75
2023/03/17 13:03:33;;;;;;;5.90;2.93;;;;;;;;;;5133587;27;20466;-77
2023/03/17 13:06:01;;;;;;;2.80;2.60;;;;;;;;;;5134332;27;20533;-76
2023/03/17 13:08:34;;;;;;;6.20;2.77;;;;;;;;;;5135349;27;20462;-76
2023/03/17 13:11:21;;;;;;;3.80;3.10;;;;;;;;;;5135487;27;20465;-78
2023/03/17 13:14:08;;;;;;;2.70;2.47;;;;;;;;;;5137461;27;20474;-76
2023/03/17 13:16:39;;;;;;;2.70;2.50;;;;;;;;;;5136506;27;20937;-76
2023/03/17 13:19:15;;;;;;;3.23;2.73;;;;;;;;;;5117984;27;20454;-77
2023/03/17 13:21:49;;;;;;;3.80;3.13;;;;;;;;;;5118743;28;20829;-77
2023/03/17 13:24:23;;;;;;;3.53;2.23;;;;;;;;;;5119876;28;20455;-78
2023/03/17 13:26:58;;;;;;;3.00;2.40;;;;;;;;;;5121023;27;20558;-77
2023/03/17 13:29:44;;;;;;;2.40;2.20;;;;;;;;;;5122875;28;20434;-76
2023/03/17 13:32:32;;;;;;;3.13;2.33;;;;;;;;;;5122567;27;20516;-76
2023/03/17 13:35:24;;;;;;;2.13;1.97;;;;;;;;;;5121956;27;20467;-77
2023/03/17 13:38:11;;;;;;;2.90;2.43;;;;;;;;;;5121568;28;20453;-77
2023/03/17 13:40:47;;;;;;;2.90;2.20;;;;;;;;;;5119354;27;20447;-77
2023/03/17 13:43:23;;;;;;;2.60;2.40;;;;;;;;;;5117944;28;20442;-76
2023/03/17 13:45:55;;;;;;;3.17;2.27;;;;;;;;;;5117420;28;20462;-77
2023/03/17 13:48:29;;;;;;;3.57;1.77;;;;;;;;;;5117073;27;20451;-77
2023/03/17 13:51:08;;;;;;;2.40;1.70;;;;;;;;;;5117984;28;20473;-76
2023/03/17 13:53:41;;;;;;;2.50;2.00;;;;;;;;;;5117723;27;20565;-77
2023/03/17 13:56:18;;;;;;;1.80;1.70;;;;;;;;;;5117724;28;20903;-76
2023/03/17 13:58:54;;;;;;;2.57;1.87;;;;;;;;;;5118472;28;20431;-78
2023/03/17 14:01:33;;;;;;;3.90;2.00;;;;;;;;;;5121573;27;20447;-76
2023/03/17 14:04:04;;;;;;;3.70;1.90;;;;;;;;;;5119458;28;20459;-77
2023/03/17 14:06:33;;;;;;;3.00;2.30;;;;;;;;;;5133853;27;20515;-77
2023/03/17 14:09:04;;;;;;;3.00;2.40;;;;;;;;;;5138081;27;20446;-78
2023/03/17 14:11:37;;;;;;;2.53;1.67;;;;;;;;;;5136842;27;20453;-75
2023/03/17 14:14:12;;;;;;;3.57;3.27;;;;;;;;;;5136842;27;20465;-77
2023/03/17 14:16:47;;;;;;;2.87;2.17;;;;;;;;;;5136922;27;20430;-77
2023/03/17 14:19:19;;;;;;;2.60;2.17;;;;;;;;;;5136663;27;21087;-77
2023/03/17 14:21:49;;;;;;;3.80;1.70;;;;;;;;;;5136513;27;20449;-77
2023/03/17 14:24:26;;;;;;;2.20;1.80;;;;;;;;;;5137243;27;20473;-77
2023/03/17 14:26:57;;;;;;;1.80;1.70;;;;;;;;;;5137236;27;20442;-77
2023/03/17 14:29:27;;;;;;;2.80;2.10;;;;;;;;;;5137363;27;20501;-77
2023/03/17 14:32:02;;;;;;;2.50;2.30;;;;;;;;;;5136152;27;20499;-76
2023/03/17 14:34:31;;;;;;;2.10;2.00;;;;;;;;;;5136213;27;20478;-77
2023/03/17 14:37:11;;;;;;;4.20;2.03;;;;;;;;;;5136815;27;20450;-76
2023/03/17 14:39:45;;;;;;;2.07;1.87;;;;;;;;;;5136887;27;20835;-77
2023/03/17 14:42:14;;;;;;;2.00;1.90;;;;;;;;;;5135909;27;20442;-76
2023/03/17 14:44:47;;;;;;;3.23;2.00;;;;;;;;;;5137068;27;20495;-77
2023/03/17 14:47:18;;;;;;;2.10;1.93;;;;;;;;;;5137207;27;20454;-78
2023/03/17 14:49:47;;;;;;;2.20;1.83;;;;;;;;;;5136965;27;20526;-77
2023/03/17 14:52:26;;;;;;;1.90;1.80;;;;;;;;;;5137984;27;20438;-77
2023/03/17 14:54:59;;;;;;;2.13;1.80;;;;;;;;;;5138239;27;20500;-76
2023/03/17 14:57:34;;;;;;;2.10;1.90;;;;;;;;;;5140239;27;20533;-77
2023/03/17 15:00:20;;;;;;;2.43;2.10;;;;;;;;;;5139551;27;20456;-77
2023/03/17 15:03:05;;;;;;;2.67;2.10;;;;;;;;;;5139745;27;20426;-77
2023/03/17 15:05:38;;;;;;;2.63;2.43;;;;;;;;;;5139535;27;20489;-77
2023/03/17 15:08:27;;;;;;;2.23;1.93;;;;;;;;;;5137621;27;20450;-78
2023/03/17 15:10:59;;;;;;;2.00;1.70;;;;;;;;;;5137046;27;21223;-77
2023/03/17 15:13:29;;;;;;;2.60;2.40;;;;;;;;;;5137129;27;20482;-77
2023/03/17 15:16:03;;;;;;;3.00;1.97;;;;;;;;;;5138216;27;20450;-77
2023/03/17 15:18:31;;;;;;;3.10;1.80;;;;;;;;;;5117461;27;20464;-76
2023/03/17 15:21:05;;;;;;;1.63;1.53;;;;;;;;;;5117366;28;20860;-78
2023/03/17 15:23:40;;;;;;;2.27;2.00;;;;;;;;;;5116996;28;20474;-77
2023/03/17 15:26:08;;;;;;;3.40;1.70;;;;;;;;;;5116620;27;20897;-77
2023/03/17 15:28:38;;;;;;;2.27;1.90;;;;;;;;;;5119704;28;20439;-76
2023/03/17 15:31:13;;;;;;;3.17;2.87;;;;;;;;;;5118336;28;20442;-77
2023/03/17 15:33:43;;;;;;;2.63;2.20;;;;;;;;;;5116419;28;20482;-76
2023/03/17 15:36:16;;;;;;;4.00;3.67;;;;;;;;;;5115231;27;20542;-76